createdAt,value
2023-03-05T00:03:17.337Z,15.20
2023-03-05T00:08:19.080Z,14.20
2023-03-05T00:13:20.608Z,10.20
2023-03-05T00:18:22.900Z,11.30
2023-03-05T00:23:24.537Z,7.20
2023-03-05T00:28:26.099Z,9.50
2023-03-05T00:33:27.774Z,11.70
2023-03-05T00:38:29.426Z,9.50
2023-03-05T00:43:31.010Z,9.10
2023-03-05T00:48:32.579Z,10.90
2023-03-05T00:53:34.225Z,9.00
2023-03-05T00:58:35.757Z,7.80
2023-03-05T01:03:37.496Z,11.50
2023-03-05T01:08:39.941Z,13.20
2023-03-05T01:13:41.716Z,12.30
2023-03-05T01:18:43.296Z,8.90
2023-03-05T01:23:44.888Z,4.90
2023-03-05T01:28:46.470Z,13.20
2023-03-05T01:33:48.061Z,6.40
2023-03-05T01:38:49.582Z,11.20
2023-03-05T01:43:52.955Z,11.30
2023-03-05T01:49:03.346Z,6.40
2023-03-05T01:54:07.528Z,8.50
2023-03-05T01:59:09.660Z,12.90
2023-03-05T02:04:16.284Z,7.80
2023-03-05T02:09:23.368Z,7.20
2023-03-05T02:14:25.916Z,7.40
2023-03-05T02:19:27.592Z,5.00
2023-03-05T02:24:35.895Z,6.70
2023-03-05T02:29:41.362Z,6.00
2023-03-05T02:34:43.013Z,7.20
2023-03-05T02:39:44.557Z,9.30
2023-03-05T02:44:46.060Z,8.10
2023-03-05T02:49:47.645Z,8.60
2023-03-05T02:54:50.221Z,8.80
2023-03-05T02:59:51.786Z,9.50
2023-03-05T03:04:53.365Z,8.60
2023-03-05T03:09:54.884Z,10.00
2023-03-05T03:14:56.518Z,10.90
2023-03-05T03:19:58.051Z,7.30
2023-03-05T03:25:00.564Z,8.60
2023-03-05T03:30:04.792Z,7.80
2023-03-05T03:35:07.004Z,5.90
2023-03-05T03:40:09.443Z,8.50
2023-03-05T03:45:11.918Z,23.30
2023-03-05T03:50:13.471Z,10.90
2023-03-05T03:55:14.989Z,13.20
2023-03-05T04:00:17.559Z,11.60
2023-03-05T04:05:19.126Z,12.40
2023-03-05T04:10:20.641Z,9.90
2023-03-05T04:15:22.190Z,8.40
2023-03-05T04:20:23.749Z,7.70
2023-03-05T04:25:25.356Z,12.70
2023-03-05T04:30:26.855Z,6.60
2023-03-05T04:35:28.482Z,10.80
2023-03-05T04:40:31.173Z,10.90
2023-03-05T04:45:33.140Z,8.30
2023-03-05T04:50:34.740Z,8.20
2023-03-05T04:55:36.277Z,7.80
2023-03-05T05:00:37.855Z,4.90
2023-03-05T05:05:39.436Z,6.90
2023-03-05T05:10:41.522Z,6.10
2023-03-05T05:15:43.086Z,7.80
2023-03-05T05:20:44.634Z,5.60
2023-03-05T05:25:46.120Z,8.20
2023-03-05T05:30:47.611Z,6.60
2023-03-05T05:35:49.288Z,9.60
2023-03-05T05:40:50.840Z,7.90
2023-03-05T05:45:52.502Z,6.80
2023-03-05T05:50:54.156Z,9.00
2023-03-05T05:55:55.647Z,5.70
2023-03-05T06:00:57.350Z,7.50
2023-03-05T06:05:58.941Z,9.70
2023-03-05T06:11:00.429Z,18.20
2023-03-05T06:16:05.755Z,5.70
2023-03-05T06:21:09.299Z,8.80
2023-03-05T06:26:12.360Z,9.30
2023-03-05T06:31:21.966Z,8.10
2023-03-05T06:36:25.036Z,5.00
2023-03-05T06:41:29.699Z,4.90
2023-03-05T06:46:35.078Z,9.60
2023-03-05T06:51:39.390Z,5.30
2023-03-05T06:56:44.047Z,10.50
2023-03-05T07:01:45.624Z,6.40
2023-03-05T07:06:47.175Z,9.10
2023-03-05T07:11:48.691Z,7.30
2023-03-05T07:16:50.628Z,8.10
2023-03-05T07:21:52.186Z,7.00
2023-03-05T07:26:53.677Z,7.60
2023-03-05T07:31:56.034Z,7.40
2023-03-05T07:36:57.538Z,14.20
2023-03-05T07:41:59.004Z,6.70
2023-03-05T07:47:00.850Z,6.90
2023-03-05T07:52:02.417Z,7.90
2023-03-05T07:57:05.338Z,15.50
2023-03-05T08:02:07.752Z,7.80
2023-03-05T08:07:09.451Z,6.80
2023-03-05T08:12:10.996Z,8.50
2023-03-05T08:17:12.469Z,9.40
2023-03-05T08:22:16.135Z,7.60
2023-03-05T08:27:17.696Z,6.30
2023-03-05T08:32:19.320Z,8.00
2023-03-05T08:37:20.825Z,8.00
2023-03-05T08:42:23.525Z,6.70
2023-03-05T08:47:26.782Z,5.60
2023-03-05T08:52:28.294Z,4.70
2023-03-05T08:57:29.851Z,14.70
2023-03-05T09:02:31.506Z,8.60
2023-03-05T09:07:33.092Z,9.20
2023-03-05T09:12:34.599Z,11.30
2023-03-05T09:17:41.722Z,15.90
2023-03-05T09:22:43.483Z,8.80
2023-03-05T09:27:45.733Z,9.10
2023-03-05T09:32:47.402Z,12.70
2023-03-05T09:37:48.998Z,9.30
2023-03-05T09:43:33.913Z,9.00
2023-03-05T09:48:52.077Z,8.10
2023-03-05T09:54:32.684Z,8.40
2023-03-05T09:59:47.888Z,9.80
2023-03-05T10:05:13.171Z,6.10
2023-03-05T10:10:27.557Z,8.90
2023-03-05T10:15:39.054Z,6.90
2023-03-05T10:20:55.235Z,7.00
2023-03-05T10:31:36.811Z,7.80
2023-03-05T10:36:59.896Z,4.60
2023-03-05T10:42:13.549Z,6.90
2023-03-05T10:47:24.336Z,5.50
2023-03-05T10:52:35.478Z,8.10
2023-03-05T10:57:37.001Z,7.80
2023-03-05T11:02:59.268Z,3.90
2023-03-05T11:08:00.794Z,8.30
2023-03-05T11:13:25.049Z,6.60
2023-03-05T11:18:26.859Z,8.10
2023-03-05T11:23:28.346Z,18.10
2023-03-05T11:28:36.510Z,6.60
2023-03-05T11:33:38.568Z,14.30
2023-03-05T11:38:52.890Z,10.40
2023-03-05T11:43:55.872Z,14.70
2023-03-05T11:48:58.516Z,13.80
2023-03-05T11:54:08.925Z,20.80
2023-03-05T12:04:24.654Z,15.30
2023-03-05T12:09:42.124Z,8.60
2023-03-05T12:15:25.958Z,13.30
2023-03-05T12:21:05.252Z,16.90
2023-03-05T12:26:06.748Z,10.70
2023-03-05T12:31:29.340Z,18.60
2023-03-05T12:36:38.183Z,5.40
2023-03-05T12:41:40.542Z,7.40
2023-03-05T12:46:43.662Z,5.50
2023-03-05T12:51:50.316Z,8.70
2023-03-05T12:56:53.504Z,6.00
2023-03-05T13:02:00.557Z,17.00
2023-03-05T13:07:05.348Z,12.60
2023-03-05T13:12:14.002Z,15.60
2023-03-05T13:17:41.226Z,10.20
2023-03-05T13:22:42.811Z,11.70
2023-03-05T13:27:44.576Z,13.50
2023-03-05T13:32:51.445Z,8.60
2023-03-05T13:37:53.059Z,8.20
2023-03-05T13:42:56.634Z,11.40
2023-03-05T13:48:04.296Z,9.80
2023-03-05T13:53:22.538Z,8.20
2023-03-05T13:58:53.586Z,7.10
2023-03-05T14:03:58.688Z,13.00
2023-03-05T14:09:07.679Z,12.50
2023-03-05T14:14:16.854Z,11.20
2023-03-05T14:19:44.859Z,6.20
2023-03-05T14:24:52.799Z,8.00
2023-03-05T14:29:54.633Z,8.80
2023-03-05T14:34:59.514Z,7.50
2023-03-05T14:40:05.590Z,7.50
2023-03-05T14:45:15.109Z,3.70
2023-03-05T14:50:22.430Z,9.30
2023-03-05T14:55:27.349Z,10.30
2023-03-05T15:00:28.941Z,11.20
2023-03-05T15:05:30.817Z,24.70
2023-03-05T15:10:32.493Z,11.90
2023-03-05T15:15:34.444Z,30.30
2023-03-05T15:20:36.853Z,24.40
2023-03-05T15:25:38.706Z,22.70
2023-03-05T15:30:46.783Z,21.10
2023-03-05T15:35:48.668Z,21.10
2023-03-05T15:40:50.446Z,23.80
2023-03-05T15:45:52.029Z,15.90
2023-03-05T15:50:53.575Z,13.80
2023-03-05T15:55:55.074Z,18.40
2023-03-05T16:00:56.632Z,15.30
2023-03-05T16:05:58.122Z,15.00
2023-03-05T16:11:00.588Z,13.00
2023-03-05T16:16:04.681Z,8.00
2023-03-05T16:21:06.370Z,11.00
2023-03-05T16:26:10.492Z,9.70
2023-03-05T16:31:12.034Z,9.30
2023-03-05T16:36:21.719Z,7.80
2023-03-05T16:41:24.369Z,10.20
2023-03-05T16:46:28.874Z,8.80
2023-03-05T16:51:30.858Z,11.60
2023-03-05T16:56:32.397Z,86.10
2023-03-05T17:01:33.939Z,40.10
2023-03-05T17:06:35.686Z,60.00
2023-03-05T17:11:37.199Z,44.10
2023-03-05T17:16:39.100Z,58.60
2023-03-05T17:21:42.730Z,70.90
2023-03-05T17:26:44.560Z,70.70
2023-03-05T17:31:46.846Z,77.00
2023-03-05T17:36:50.524Z,32.60
2023-03-05T17:41:52.044Z,62.90
2023-03-05T17:46:53.569Z,109.00
2023-03-05T17:51:55.624Z,56.20
2023-03-05T17:56:58.020Z,60.20
2023-03-05T18:01:59.587Z,23.80
2023-03-05T18:07:01.941Z,34.70
2023-03-05T18:12:03.753Z,25.50
2023-03-05T18:17:05.371Z,28.60
2023-03-05T18:22:06.879Z,46.80
2023-03-05T18:27:08.416Z,30.10
2023-03-05T18:32:10.009Z,38.30
2023-03-05T18:37:11.537Z,48.10
2023-03-05T18:42:14.227Z,36.60
2023-03-05T18:47:15.772Z,36.50
2023-03-05T18:52:17.242Z,65.60
2023-03-05T18:57:18.762Z,42.80
2023-03-05T19:02:20.245Z,42.80
2023-03-05T19:07:21.849Z,42.20
2023-03-05T19:12:31.697Z,40.70
2023-03-05T19:17:33.201Z,35.20
2023-03-05T19:22:34.998Z,58.10
2023-03-05T19:27:37.838Z,44.60
2023-03-05T19:32:39.542Z,51.90
2023-03-05T19:37:41.174Z,58.20
2023-03-05T19:42:42.888Z,45.40
2023-03-05T19:47:44.390Z,50.10
2023-03-05T19:52:45.915Z,62.20
2023-03-05T19:57:47.553Z,49.10
2023-03-05T20:02:49.459Z,46.00
2023-03-05T20:07:51.826Z,42.80
2023-03-05T20:12:53.394Z,38.20
2023-03-05T20:17:57.725Z,49.40
2023-03-05T20:22:59.301Z,60.50
2023-03-05T20:28:00.845Z,45.00
2023-03-05T20:33:04.165Z,46.90
2023-03-05T20:38:22.323Z,42.20
2023-03-05T20:43:25.384Z,41.50
2023-03-05T20:48:29.211Z,54.20
2023-03-05T20:53:30.740Z,40.00
2023-03-05T20:58:32.396Z,55.60
2023-03-05T21:03:34.390Z,39.30
2023-03-05T21:08:35.948Z,40.20
2023-03-05T21:13:37.620Z,35.40
2023-03-05T21:18:39.566Z,58.70
2023-03-05T21:23:41.093Z,46.00
2023-03-05T21:28:42.622Z,41.70
2023-03-05T21:33:44.549Z,33.50
2023-03-05T21:38:49.832Z,32.90
2023-03-05T21:43:51.493Z,40.60
2023-03-05T21:48:52.963Z,78.10
2023-03-05T21:53:54.534Z,55.60
2023-03-05T21:58:56.009Z,41.30
2023-03-05T22:03:57.614Z,54.90
2023-03-05T22:08:59.188Z,58.90
2023-03-05T22:14:00.704Z,34.80
2023-03-05T22:19:02.583Z,47.40
2023-03-05T22:24:04.161Z,43.20
2023-03-05T22:29:08.495Z,32.00
2023-03-05T22:34:10.723Z,31.60
2023-03-05T22:39:12.286Z,36.70
2023-03-05T22:44:13.807Z,46.00
2023-03-05T22:49:15.361Z,38.00
2023-03-05T22:54:16.833Z,30.60
2023-03-05T22:59:18.380Z,36.40
2023-03-05T23:04:50.195Z,54.80
2023-03-05T23:10:19.536Z,31.80
2023-03-05T23:15:27.239Z,30.70
2023-03-05T23:20:33.074Z,42.00
2023-03-05T23:25:36.491Z,33.20
2023-03-05T23:30:39.537Z,31.60
2023-03-05T23:35:43.884Z,36.20
2023-03-05T23:40:48.391Z,40.10
2023-03-05T23:45:50.191Z,30.00
2023-03-05T23:50:52.018Z,39.50
2023-03-05T23:55:54.555Z,34.50
